sensor_id;sensor_type;location;lat;lon;timestamp;P1;durP1;ratioP1;P2;durP2;ratioP2
70071;SDS011;57434;42.794;23.302;2023-04-25T00:00:37;5.60;;;2.20;;
70071;SDS011;57434;42.794;23.302;2023-04-25T00:01:38;5.40;;;2.05;;
70071;SDS011;57434;42.794;23.302;2023-04-25T00:02:40;6.45;;;2.13;;
70071;SDS011;57434;42.794;23.302;2023-04-25T00:03:42;5.65;;;2.10;;
70071;SDS011;57434;42.794;23.302;2023-04-25T00:04:44;8.32;;;2.38;;
70071;SDS011;57434;42.794;23.302;2023-04-25T00:05:46;6.87;;;2.57;;
70071;SDS011;57434;42.794;23.302;2023-04-25T00:06:48;7.40;;;2.92;;
70071;SDS011;57434;42.794;23.302;2023-04-25T00:07:50;6.60;;;2.20;;
70071;SDS011;57434;42.794;23.302;2023-04-25T00:08:52;5.22;;;2.17;;
70071;SDS011;57434;42.794;23.302;2023-04-25T00:09:54;6.05;;;2.28;;
70071;SDS011;57434;42.794;23.302;2023-04-25T00:10:56;5.07;;;2.25;;
70071;SDS011;57434;42.794;23.302;2023-04-25T00:12:01;5.90;;;2.42;;
70071;SDS011;57434;42.794;23.302;2023-04-25T00:13:03;7.82;;;2.80;;
70071;SDS011;57434;42.794;23.302;2023-04-25T00:14:04;7.75;;;2.60;;
70071;SDS011;57434;42.794;23.302;2023-04-25T00:15:06;6.25;;;2.63;;
70071;SDS011;57434;42.794;23.302;2023-04-25T00:16:09;6.80;;;2.27;;
70071;SDS011;57434;42.794;23.302;2023-04-25T00:17:10;5.57;;;2.28;;
70071;SDS011;57434;42.794;23.302;2023-04-25T00:18:12;6.75;;;1.92;;
70071;SDS011;57434;42.794;23.302;2023-04-25T00:19:14;5.00;;;2.10;;
70071;SDS011;57434;42.794;23.302;2023-04-25T00:20:16;6.03;;;1.90;;
70071;SDS011;57434;42.794;23.302;2023-04-25T00:21:18;4.72;;;1.67;;
70071;SDS011;57434;42.794;23.302;2023-04-25T00:22:20;5.93;;;1.95;;
70071;SDS011;57434;42.794;23.302;2023-04-25T00:23:22;5.00;;;1.90;;
70071;SDS011;57434;42.794;23.302;2023-04-25T00:24:24;5.75;;;2.20;;
70071;SDS011;57434;42.794;23.302;2023-04-25T00:25:26;6.13;;;2.03;;
70071;SDS011;57434;42.794;23.302;2023-04-25T00:26:28;7.17;;;2.33;;
70071;SDS011;57434;42.794;23.302;2023-04-25T00:27:29;4.57;;;1.45;;
70071;SDS011;57434;42.794;23.302;2023-04-25T00:28:31;5.10;;;1.80;;
70071;SDS011;57434;42.794;23.302;2023-04-25T00:29:33;6.00;;;1.58;;
70071;SDS011;57434;42.794;23.302;2023-04-25T00:30:35;6.13;;;1.77;;
70071;SDS011;57434;42.794;23.302;2023-04-25T00:31:37;5.15;;;1.90;;
70071;SDS011;57434;42.794;23.302;2023-04-25T00:32:39;6.00;;;2.03;;
70071;SDS011;57434;42.794;23.302;2023-04-25T00:33:41;5.63;;;1.90;;
70071;SDS011;57434;42.794;23.302;2023-04-25T00:34:43;4.82;;;1.65;;
70071;SDS011;57434;42.794;23.302;2023-04-25T00:35:44;5.45;;;2.22;;
70071;SDS011;57434;42.794;23.302;2023-04-25T00:36:46;5.47;;;1.80;;
70071;SDS011;57434;42.794;23.302;2023-04-25T00:37:48;6.60;;;2.30;;
70071;SDS011;57434;42.794;23.302;2023-04-25T00:38:50;8.02;;;2.13;;
70071;SDS011;57434;42.794;23.302;2023-04-25T00:39:52;5.57;;;1.77;;
70071;SDS011;57434;42.794;23.302;2023-04-25T00:40:54;5.07;;;1.95;;
70071;SDS011;57434;42.794;23.302;2023-04-25T00:41:55;4.47;;;1.60;;
70071;SDS011;57434;42.794;23.302;2023-04-25T00:42:59;5.82;;;2.17;;
70071;SDS011;57434;42.794;23.302;2023-04-25T00:44:00;5.85;;;2.47;;
70071;SDS011;57434;42.794;23.302;2023-04-25T00:45:04;5.00;;;1.98;;
70071;SDS011;57434;42.794;23.302;2023-04-25T00:46:07;5.93;;;1.95;;
70071;SDS011;57434;42.794;23.302;2023-04-25T00:47:08;6.20;;;2.10;;
70071;SDS011;57434;42.794;23.302;2023-04-25T00:48:13;4.78;;;1.48;;
70071;SDS011;57434;42.794;23.302;2023-04-25T00:49:16;5.38;;;2.03;;
70071;SDS011;57434;42.794;23.302;2023-04-25T00:50:17;4.63;;;1.63;;
70071;SDS011;57434;42.794;23.302;2023-04-25T00:51:20;5.00;;;1.80;;
70071;SDS011;57434;42.794;23.302;2023-04-25T00:52:22;4.65;;;1.60;;
70071;SDS011;57434;42.794;23.302;2023-04-25T00:53:25;4.68;;;1.70;;
70071;SDS011;57434;42.794;23.302;2023-04-25T00:54:27;4.78;;;1.92;;
70071;SDS011;57434;42.794;23.302;2023-04-25T00:55:29;6.70;;;1.95;;
70071;SDS011;57434;42.794;23.302;2023-04-25T00:56:32;4.88;;;1.80;;
70071;SDS011;57434;42.794;23.302;2023-04-25T00:57:34;5.63;;;2.20;;
70071;SDS011;57434;42.794;23.302;2023-04-25T00:58:36;8.07;;;2.22;;
70071;SDS011;57434;42.794;23.302;2023-04-25T00:59:39;5.03;;;1.67;;
70071;SDS011;57434;42.794;23.302;2023-04-25T01:00:47;5.15;;;2.15;;
70071;SDS011;57434;42.794;23.302;2023-04-25T01:01:50;5.05;;;1.98;;
70071;SDS011;57434;42.794;23.302;2023-04-25T01:02:52;6.10;;;1.88;;
70071;SDS011;57434;42.794;23.302;2023-04-25T01:03:54;5.18;;;2.03;;
70071;SDS011;57434;42.794;23.302;2023-04-25T01:04:57;5.45;;;2.08;;
70071;SDS011;57434;42.794;23.302;2023-04-25T01:05:59;6.88;;;1.85;;
70071;SDS011;57434;42.794;23.302;2023-04-25T01:07:01;5.32;;;2.00;;
70071;SDS011;57434;42.794;23.302;2023-04-25T01:08:03;4.97;;;1.70;;
70071;SDS011;57434;42.794;23.302;2023-04-25T01:09:05;6.40;;;2.30;;
70071;SDS011;57434;42.794;23.302;2023-04-25T01:10:08;5.85;;;2.33;;
70071;SDS011;57434;42.794;23.302;2023-04-25T01:11:10;5.03;;;2.00;;
70071;SDS011;57434;42.794;23.302;2023-04-25T01:12:12;6.28;;;2.20;;
70071;SDS011;57434;42.794;23.302;2023-04-25T01:13:14;4.90;;;1.80;;
70071;SDS011;57434;42.794;23.302;2023-04-25T01:14:16;5.60;;;2.42;;
70071;SDS011;57434;42.794;23.302;2023-04-25T01:15:18;7.03;;;2.30;;
70071;SDS011;57434;42.794;23.302;2023-04-25T01:16:20;4.80;;;2.00;;
70071;SDS011;57434;42.794;23.302;2023-04-25T01:17:22;5.97;;;1.95;;
70071;SDS011;57434;42.794;23.302;2023-04-25T01:18:24;5.63;;;2.10;;
70071;SDS011;57434;42.794;23.302;2023-04-25T01:19:26;5.00;;;1.80;;
70071;SDS011;57434;42.794;23.302;2023-04-25T01:20:28;6.55;;;1.83;;
70071;SDS011;57434;42.794;23.302;2023-04-25T01:21:30;5.35;;;1.95;;
70071;SDS011;57434;42.794;23.302;2023-04-25T01:24:12;5.70;;;2.35;;
70071;SDS011;57434;42.794;23.302;2023-04-25T01:25:15;6.72;;;2.83;;
70071;SDS011;57434;42.794;23.302;2023-04-25T01:26:18;7.05;;;2.47;;
70071;SDS011;57434;42.794;23.302;2023-04-25T01:27:20;7.22;;;2.53;;
70071;SDS011;57434;42.794;23.302;2023-04-25T01:28:23;5.63;;;2.22;;
70071;SDS011;57434;42.794;23.302;2023-04-25T01:29:25;7.53;;;2.30;;
70071;SDS011;57434;42.794;23.302;2023-04-25T01:30:28;6.38;;;2.22;;
70071;SDS011;57434;42.794;23.302;2023-04-25T01:31:30;6.95;;;2.15;;
70071;SDS011;57434;42.794;23.302;2023-04-25T01:32:34;4.72;;;1.83;;
70071;SDS011;57434;42.794;23.302;2023-04-25T01:33:37;6.18;;;1.80;;
70071;SDS011;57434;42.794;23.302;2023-04-25T01:34:38;4.90;;;1.92;;
70071;SDS011;57434;42.794;23.302;2023-04-25T01:35:40;5.43;;;2.03;;
70071;SDS011;57434;42.794;23.302;2023-04-25T01:36:42;5.28;;;1.80;;
70071;SDS011;57434;42.794;23.302;2023-04-25T01:37:44;4.70;;;1.80;;
70071;SDS011;57434;42.794;23.302;2023-04-25T01:38:46;6.25;;;1.98;;
70071;SDS011;57434;42.794;23.302;2023-04-25T01:39:48;5.53;;;1.90;;
70071;SDS011;57434;42.794;23.302;2023-04-25T01:40:50;5.85;;;2.15;;
70071;SDS011;57434;42.794;23.302;2023-04-25T01:41:52;5.38;;;2.15;;
70071;SDS011;57434;42.794;23.302;2023-04-25T01:42:54;5.97;;;2.40;;
70071;SDS011;57434;42.794;23.302;2023-04-25T01:43:56;5.53;;;2.85;;
70071;SDS011;57434;42.794;23.302;2023-04-25T01:44:58;5.78;;;1.88;;
70071;SDS011;57434;42.794;23.302;2023-04-25T01:46:00;4.68;;;2.08;;
70071;SDS011;57434;42.794;23.302;2023-04-25T01:47:03;7.50;;;2.40;;
70071;SDS011;57434;42.794;23.302;2023-04-25T01:48:04;5.03;;;1.83;;
70071;SDS011;57434;42.794;23.302;2023-04-25T01:49:07;5.20;;;1.52;;
70071;SDS011;57434;42.794;23.302;2023-04-25T01:50:09;5.10;;;1.60;;
70071;SDS011;57434;42.794;23.302;2023-04-25T01:51:11;5.30;;;2.05;;
70071;SDS011;57434;42.794;23.302;2023-04-25T01:52:13;5.15;;;1.90;;
70071;SDS011;57434;42.794;23.302;2023-04-25T01:53:15;6.13;;;1.92;;
70071;SDS011;57434;42.794;23.302;2023-04-25T01:54:17;6.25;;;1.80;;
70071;SDS011;57434;42.794;23.302;2023-04-25T01:55:20;6.63;;;1.90;;
70071;SDS011;57434;42.794;23.302;2023-04-25T01:56:22;6.22;;;2.00;;
70071;SDS011;57434;42.794;23.302;2023-04-25T01:57:23;5.15;;;1.80;;
70071;SDS011;57434;42.794;23.302;2023-04-25T01:58:25;4.65;;;1.88;;
70071;SDS011;57434;42.794;23.302;2023-04-25T01:59:27;4.43;;;1.58;;
70071;SDS011;57434;42.794;23.302;2023-04-25T02:00:29;4.47;;;1.77;;
70071;SDS011;57434;42.794;23.302;2023-04-25T02:01:31;7.40;;;1.83;;
70071;SDS011;57434;42.794;23.302;2023-04-25T02:02:33;5.30;;;1.95;;
70071;SDS011;57434;42.794;23.302;2023-04-25T02:03:35;5.55;;;2.03;;
70071;SDS011;57434;42.794;23.302;2023-04-25T02:04:37;5.22;;;1.98;;
70071;SDS011;57434;42.794;23.302;2023-04-25T02:05:39;5.93;;;2.35;;
70071;SDS011;57434;42.794;23.302;2023-04-25T02:06:41;6.45;;;1.80;;
70071;SDS011;57434;42.794;23.302;2023-04-25T02:07:43;5.72;;;1.60;;
70071;SDS011;57434;42.794;23.302;2023-04-25T02:08:45;5.70;;;1.77;;
70071;SDS011;57434;42.794;23.302;2023-04-25T02:09:47;5.55;;;1.90;;
70071;SDS011;57434;42.794;23.302;2023-04-25T02:10:49;5.27;;;1.90;;
70071;SDS011;57434;42.794;23.302;2023-04-25T02:11:50;5.53;;;2.30;;
70071;SDS011;57434;42.794;23.302;2023-04-25T02:12:52;6.70;;;2.35;;
70071;SDS011;57434;42.794;23.302;2023-04-25T02:13:54;5.40;;;2.08;;
70071;SDS011;57434;42.794;23.302;2023-04-25T02:14:56;6.72;;;2.53;;
70071;SDS011;57434;42.794;23.302;2023-04-25T02:15:57;5.30;;;2.03;;
70071;SDS011;57434;42.794;23.302;2023-04-25T02:16:59;5.38;;;2.20;;
70071;SDS011;57434;42.794;23.302;2023-04-25T02:18:01;5.03;;;1.75;;
70071;SDS011;57434;42.794;23.302;2023-04-25T02:19:03;8.48;;;2.28;;
70071;SDS011;57434;42.794;23.302;2023-04-25T02:20:05;5.10;;;2.00;;
70071;SDS011;57434;42.794;23.302;2023-04-25T02:21:07;5.70;;;1.83;;
70071;SDS011;57434;42.794;23.302;2023-04-25T02:22:09;5.40;;;2.30;;
70071;SDS011;57434;42.794;23.302;2023-04-25T02:23:11;6.47;;;2.47;;
70071;SDS011;57434;42.794;23.302;2023-04-25T02:24:13;6.93;;;2.63;;
70071;SDS011;57434;42.794;23.302;2023-04-25T02:25:14;16.73;;;4.47;;
70071;SDS011;57434;42.794;23.302;2023-04-25T02:26:16;12.50;;;3.67;;
70071;SDS011;57434;42.794;23.302;2023-04-25T02:27:18;9.88;;;3.25;;
70071;SDS011;57434;42.794;23.302;2023-04-25T02:28:20;7.25;;;2.40;;
70071;SDS011;57434;42.794;23.302;2023-04-25T02:29:22;8.75;;;2.88;;
70071;SDS011;57434;42.794;23.302;2023-04-25T02:30:24;7.47;;;3.28;;
70071;SDS011;57434;42.794;23.302;2023-04-25T02:31:26;7.07;;;2.80;;
70071;SDS011;57434;42.794;23.302;2023-04-25T02:32:27;9.43;;;2.78;;
70071;SDS011;57434;42.794;23.302;2023-04-25T02:33:29;6.15;;;2.47;;
70071;SDS011;57434;42.794;23.302;2023-04-25T02:34:31;7.40;;;2.80;;
70071;SDS011;57434;42.794;23.302;2023-04-25T02:35:33;5.57;;;2.07;;
70071;SDS011;57434;42.794;23.302;2023-04-25T02:36:34;6.80;;;2.38;;
70071;SDS011;57434;42.794;23.302;2023-04-25T02:37:37;6.18;;;2.65;;
70071;SDS011;57434;42.794;23.302;2023-04-25T02:38:39;5.00;;;1.85;;
70071;SDS011;57434;42.794;23.302;2023-04-25T02:39:41;5.85;;;2.50;;
70071;SDS011;57434;42.794;23.302;2023-04-25T02:40:43;5.97;;;2.38;;
70071;SDS011;57434;42.794;23.302;2023-04-25T02:41:45;5.40;;;2.45;;
70071;SDS011;57434;42.794;23.302;2023-04-25T02:42:46;5.43;;;2.30;;
70071;SDS011;57434;42.794;23.302;2023-04-25T02:43:48;4.88;;;2.08;;
70071;SDS011;57434;42.794;23.302;2023-04-25T02:44:50;4.95;;;2.10;;
70071;SDS011;57434;42.794;23.302;2023-04-25T02:45:52;6.00;;;2.40;;
70071;SDS011;57434;42.794;23.302;2023-04-25T02:46:54;5.13;;;2.10;;
70071;SDS011;57434;42.794;23.302;2023-04-25T02:47:55;5.35;;;1.73;;
70071;SDS011;57434;42.794;23.302;2023-04-25T02:48:57;8.02;;;2.28;;
70071;SDS011;57434;42.794;23.302;2023-04-25T02:49:59;5.43;;;2.00;;
70071;SDS011;57434;42.794;23.302;2023-04-25T02:51:01;4.82;;;1.67;;
70071;SDS011;57434;42.794;23.302;2023-04-25T02:52:03;5.53;;;1.88;;
70071;SDS011;57434;42.794;23.302;2023-04-25T02:53:04;5.07;;;1.52;;
70071;SDS011;57434;42.794;23.302;2023-04-25T02:54:06;4.78;;;1.42;;
70071;SDS011;57434;42.794;23.302;2023-04-25T02:55:08;5.97;;;1.58;;
70071;SDS011;57434;42.794;23.302;2023-04-25T02:56:10;5.83;;;1.63;;
70071;SDS011;57434;42.794;23.302;2023-04-25T02:57:12;3.17;;;0.98;;
70071;SDS011;57434;42.794;23.302;2023-04-25T02:58:13;5.00;;;1.30;;
70071;SDS011;57434;42.794;23.302;2023-04-25T02:59:15;3.95;;;1.35;;
70071;SDS011;57434;42.794;23.302;2023-04-25T03:00:17;4.03;;;1.10;;
70071;SDS011;57434;42.794;23.302;2023-04-25T03:01:19;4.00;;;1.40;;
70071;SDS011;57434;42.794;23.302;2023-04-25T03:02:21;5.97;;;1.70;;
70071;SDS011;57434;42.794;23.302;2023-04-25T03:03:22;4.18;;;1.40;;
70071;SDS011;57434;42.794;23.302;2023-04-25T03:04:25;5.07;;;1.60;;
70071;SDS011;57434;42.794;23.302;2023-04-25T03:05:26;4.40;;;1.65;;
70071;SDS011;57434;42.794;23.302;2023-04-25T03:06:28;4.93;;;1.53;;
70071;SDS011;57434;42.794;23.302;2023-04-25T03:07:30;4.70;;;1.40;;
70071;SDS011;57434;42.794;23.302;2023-04-25T03:08:32;5.85;;;1.35;;
70071;SDS011;57434;42.794;23.302;2023-04-25T03:09:33;4.88;;;1.35;;
70071;SDS011;57434;42.794;23.302;2023-04-25T03:10:35;5.68;;;1.48;;
70071;SDS011;57434;42.794;23.302;2023-04-25T03:11:38;5.90;;;1.30;;
70071;SDS011;57434;42.794;23.302;2023-04-25T03:12:40;4.45;;;1.50;;
70071;SDS011;57434;42.794;23.302;2023-04-25T03:13:42;5.55;;;1.55;;
70071;SDS011;57434;42.794;23.302;2023-04-25T03:14:43;4.47;;;1.30;;
70071;SDS011;57434;42.794;23.302;2023-04-25T03:15:45;3.42;;;1.00;;
70071;SDS011;57434;42.794;23.302;2023-04-25T03:16:47;4.53;;;1.07;;
70071;SDS011;57434;42.794;23.302;2023-04-25T03:17:49;3.17;;;1.00;;
70071;SDS011;57434;42.794;23.302;2023-04-25T03:18:51;4.35;;;1.10;;
70071;SDS011;57434;42.794;23.302;2023-04-25T03:19:52;4.63;;;1.00;;
70071;SDS011;57434;42.794;23.302;2023-04-25T03:20:54;5.35;;;1.30;;
70071;SDS011;57434;42.794;23.302;2023-04-25T03:21:56;4.80;;;1.25;;
70071;SDS011;57434;42.794;23.302;2023-04-25T03:22:58;4.10;;;1.05;;
70071;SDS011;57434;42.794;23.302;2023-04-25T03:24:02;4.10;;;1.38;;
70071;SDS011;57434;42.794;23.302;2023-04-25T03:25:05;3.50;;;1.02;;
70071;SDS011;57434;42.794;23.302;2023-04-25T03:26:07;7.28;;;1.15;;
70071;SDS011;57434;42.794;23.302;2023-04-25T03:27:09;4.60;;;1.07;;
70071;SDS011;57434;42.794;23.302;2023-04-25T03:28:11;4.32;;;1.20;;
70071;SDS011;57434;42.794;23.302;2023-04-25T03:29:13;8.00;;;1.27;;
70071;SDS011;57434;42.794;23.302;2023-04-25T03:30:15;3.33;;;1.00;;
70071;SDS011;57434;42.794;23.302;2023-04-25T03:31:16;5.60;;;1.40;;
70071;SDS011;57434;42.794;23.302;2023-04-25T03:32:18;4.00;;;1.20;;
70071;SDS011;57434;42.794;23.302;2023-04-25T03:33:20;4.28;;;1.10;;
70071;SDS011;57434;42.794;23.302;2023-04-25T03:34:22;3.95;;;0.90;;
70071;SDS011;57434;42.794;23.302;2023-04-25T03:35:24;5.53;;;1.40;;
70071;SDS011;57434;42.794;23.302;2023-04-25T03:36:26;5.85;;;1.33;;
70071;SDS011;57434;42.794;23.302;2023-04-25T03:37:28;6.97;;;1.20;;
70071;SDS011;57434;42.794;23.302;2023-04-25T03:38:30;5.05;;;1.25;;
70071;SDS011;57434;42.794;23.302;2023-04-25T03:39:31;3.65;;;1.00;;
70071;SDS011;57434;42.794;23.302;2023-04-25T03:40:33;2.65;;;0.80;;
70071;SDS011;57434;42.794;23.302;2023-04-25T03:41:35;4.40;;;1.23;;
70071;SDS011;57434;42.794;23.302;2023-04-25T03:42:37;3.53;;;1.15;;
70071;SDS011;57434;42.794;23.302;2023-04-25T03:43:39;2.83;;;0.90;;
70071;SDS011;57434;42.794;23.302;2023-04-25T03:44:40;4.88;;;1.30;;
70071;SDS011;57434;42.794;23.302;2023-04-25T03:45:42;5.18;;;1.17;;
70071;SDS011;57434;42.794;23.302;2023-04-25T03:46:44;3.55;;;0.98;;
70071;SDS011;57434;42.794;23.302;2023-04-25T03:47:46;3.60;;;1.20;;
70071;SDS011;57434;42.794;23.302;2023-04-25T03:48:48;4.07;;;1.00;;
70071;SDS011;57434;42.794;23.302;2023-04-25T03:49:49;3.28;;;0.88;;
70071;SDS011;57434;42.794;23.302;2023-04-25T03:50:52;6.90;;;1.20;;
70071;SDS011;57434;42.794;23.302;2023-04-25T03:51:54;4.10;;;0.95;;
70071;SDS011;57434;42.794;23.302;2023-04-25T03:52:56;3.63;;;0.95;;
70071;SDS011;57434;42.794;23.302;2023-04-25T03:53:57;3.42;;;1.10;;
70071;SDS011;57434;42.794;23.302;2023-04-25T03:54:59;4.63;;;1.23;;
70071;SDS011;57434;42.794;23.302;2023-04-25T03:56:01;3.70;;;0.95;;
70071;SDS011;57434;42.794;23.302;2023-04-25T03:57:03;4.30;;;0.80;;
70071;SDS011;57434;42.794;23.302;2023-04-25T03:58:04;3.40;;;0.83;;
70071;SDS011;57434;42.794;23.302;2023-04-25T03:59:06;4.13;;;0.80;;
70071;SDS011;57434;42.794;23.302;2023-04-25T04:00:08;4.65;;;1.00;;
70071;SDS011;57434;42.794;23.302;2023-04-25T04:01:11;5.20;;;1.50;;
70071;SDS011;57434;42.794;23.302;2023-04-25T04:02:12;8.40;;;1.55;;
70071;SDS011;57434;42.794;23.302;2023-04-25T04:03:14;4.82;;;1.20;;
70071;SDS011;57434;42.794;23.302;2023-04-25T04:04:16;4.72;;;1.63;;
70071;SDS011;57434;42.794;23.302;2023-04-25T04:05:18;4.85;;;1.60;;
70071;SDS011;57434;42.794;23.302;2023-04-25T04:06:20;5.00;;;1.77;;
70071;SDS011;57434;42.794;23.302;2023-04-25T04:07:22;5.45;;;1.83;;
70071;SDS011;57434;42.794;23.302;2023-04-25T04:08:24;5.07;;;1.80;;
70071;SDS011;57434;42.794;23.302;2023-04-25T04:09:26;4.97;;;1.67;;
70071;SDS011;57434;42.794;23.302;2023-04-25T04:10:27;4.85;;;1.35;;
70071;SDS011;57434;42.794;23.302;2023-04-25T04:11:29;5.78;;;1.55;;
70071;SDS011;57434;42.794;23.302;2023-04-25T04:12:31;8.95;;;1.75;;
70071;SDS011;57434;42.794;23.302;2023-04-25T04:13:33;6.70;;;2.28;;
70071;SDS011;57434;42.794;23.302;2023-04-25T04:14:34;7.32;;;2.80;;
70071;SDS011;57434;42.794;23.302;2023-04-25T04:15:36;6.00;;;2.80;;
70071;SDS011;57434;42.794;23.302;2023-04-25T04:16:38;6.82;;;3.45;;
70071;SDS011;57434;42.794;23.302;2023-04-25T04:17:40;6.53;;;2.95;;
70071;SDS011;57434;42.794;23.302;2023-04-25T04:18:42;8.20;;;2.67;;
70071;SDS011;57434;42.794;23.302;2023-04-25T04:19:43;9.57;;;4.78;;
70071;SDS011;57434;42.794;23.302;2023-04-25T04:20:45;17.75;;;7.05;;
70071;SDS011;57434;42.794;23.302;2023-04-25T04:21:47;16.20;;;7.88;;
70071;SDS011;57434;42.794;23.302;2023-04-25T04:22:49;15.45;;;7.72;;
70071;SDS011;57434;42.794;23.302;2023-04-25T04:23:51;13.00;;;7.30;;
70071;SDS011;57434;42.794;23.302;2023-04-25T04:24:52;15.60;;;7.43;;
70071;SDS011;57434;42.794;23.302;2023-04-25T04:25:54;12.65;;;6.90;;
70071;SDS011;57434;42.794;23.302;2023-04-25T04:26:56;15.35;;;6.43;;
70071;SDS011;57434;42.794;23.302;2023-04-25T04:27:58;10.20;;;5.65;;
70071;SDS011;57434;42.794;23.302;2023-04-25T04:29:00;11.97;;;5.77;;
70071;SDS011;57434;42.794;23.302;2023-04-25T04:30:02;12.45;;;6.00;;
70071;SDS011;57434;42.794;23.302;2023-04-25T04:31:04;9.55;;;5.35;;
70071;SDS011;57434;42.794;23.302;2023-04-25T04:32:05;11.60;;;5.50;;
70071;SDS011;57434;42.794;23.302;2023-04-25T04:33:08;9.75;;;4.38;;
70071;SDS011;57434;42.794;23.302;2023-04-25T04:34:10;8.45;;;4.28;;
70071;SDS011;57434;42.794;23.302;2023-04-25T04:35:12;8.57;;;4.72;;
70071;SDS011;57434;42.794;23.302;2023-04-25T04:36:13;8.07;;;3.35;;
70071;SDS011;57434;42.794;23.302;2023-04-25T04:37:15;6.75;;;2.97;;
70071;SDS011;57434;42.794;23.302;2023-04-25T04:38:17;8.93;;;2.45;;
70071;SDS011;57434;42.794;23.302;2023-04-25T04:39:19;6.80;;;2.17;;
70071;SDS011;57434;42.794;23.302;2023-04-25T04:40:21;6.55;;;2.58;;
70071;SDS011;57434;42.794;23.302;2023-04-25T04:41:23;6.90;;;2.40;;
70071;SDS011;57434;42.794;23.302;2023-04-25T04:42:24;7.80;;;2.15;;
70071;SDS011;57434;42.794;23.302;2023-04-25T04:43:29;7.57;;;2.35;;
70071;SDS011;57434;42.794;23.302;2023-04-25T04:44:30;7.05;;;2.42;;
70071;SDS011;57434;42.794;23.302;2023-04-25T04:45:32;6.30;;;2.58;;
70071;SDS011;57434;42.794;23.302;2023-04-25T04:46:34;5.80;;;2.40;;
70071;SDS011;57434;42.794;23.302;2023-04-25T04:47:36;5.95;;;2.55;;
70071;SDS011;57434;42.794;23.302;2023-04-25T04:48:38;6.07;;;2.78;;
70071;SDS011;57434;42.794;23.302;2023-04-25T04:49:40;6.87;;;2.67;;
70071;SDS011;57434;42.794;23.302;2023-04-25T04:50:45;5.75;;;2.50;;
70071;SDS011;57434;42.794;23.302;2023-04-25T04:51:47;7.35;;;2.35;;
70071;SDS011;57434;42.794;23.302;2023-04-25T04:52:48;7.88;;;2.70;;
70071;SDS011;57434;42.794;23.302;2023-04-25T04:53:50;7.28;;;2.67;;
70071;SDS011;57434;42.794;23.302;2023-04-25T04:54:52;7.45;;;2.92;;
70071;SDS011;57434;42.794;23.302;2023-04-25T04:55:54;7.45;;;2.75;;
70071;SDS011;57434;42.794;23.302;2023-04-25T04:56:59;8.60;;;2.85;;
70071;SDS011;57434;42.794;23.302;2023-04-25T04:58:00;7.28;;;2.85;;
70071;SDS011;57434;42.794;23.302;2023-04-25T04:59:02;6.07;;;2.40;;
70071;SDS011;57434;42.794;23.302;2023-04-25T05:00:04;6.73;;;3.00;;
70071;SDS011;57434;42.794;23.302;2023-04-25T05:01:07;7.45;;;2.80;;
70071;SDS011;57434;42.794;23.302;2023-04-25T05:02:10;6.40;;;2.72;;
70071;SDS011;57434;42.794;23.302;2023-04-25T05:03:12;7.57;;;2.97;;
70071;SDS011;57434;42.794;23.302;2023-04-25T05:04:14;8.20;;;3.40;;
70071;SDS011;57434;42.794;23.302;2023-04-25T05:05:16;6.57;;;2.85;;
70071;SDS011;57434;42.794;23.302;2023-04-25T05:06:18;9.05;;;2.70;;
70071;SDS011;57434;42.794;23.302;2023-04-25T05:07:20;6.85;;;3.22;;
70071;SDS011;57434;42.794;23.302;2023-04-25T05:08:22;7.05;;;3.08;;
70071;SDS011;57434;42.794;23.302;2023-04-25T05:09:24;6.47;;;2.90;;
70071;SDS011;57434;42.794;23.302;2023-04-25T05:10:26;5.53;;;2.70;;
70071;SDS011;57434;42.794;23.302;2023-04-25T05:11:27;7.18;;;3.10;;
70071;SDS011;57434;42.794;23.302;2023-04-25T05:12:29;6.97;;;3.15;;
70071;SDS011;57434;42.794;23.302;2023-04-25T05:13:31;8.38;;;3.80;;
70071;SDS011;57434;42.794;23.302;2023-04-25T05:14:33;11.40;;;4.72;;
70071;SDS011;57434;42.794;23.302;2023-04-25T05:15:35;12.90;;;6.68;;
70071;SDS011;57434;42.794;23.302;2023-04-25T05:16:36;10.30;;;6.43;;
70071;SDS011;57434;42.794;23.302;2023-04-25T05:17:38;10.63;;;6.38;;
70071;SDS011;57434;42.794;23.302;2023-04-25T05:18:41;13.90;;;7.07;;
70071;SDS011;57434;42.794;23.302;2023-04-25T05:19:43;13.80;;;6.72;;
70071;SDS011;57434;42.794;23.302;2023-04-25T05:20:45;10.20;;;5.80;;
70071;SDS011;57434;42.794;23.302;2023-04-25T05:21:47;11.02;;;6.03;;
70071;SDS011;57434;42.794;23.302;2023-04-25T05:22:48;10.15;;;5.15;;
70071;SDS011;57434;42.794;23.302;2023-04-25T05:23:50;9.05;;;5.00;;
70071;SDS011;57434;42.794;23.302;2023-04-25T05:24:52;10.60;;;4.45;;
70071;SDS011;57434;42.794;23.302;2023-04-25T05:25:56;8.85;;;5.03;;
70071;SDS011;57434;42.794;23.302;2023-04-25T05:26:58;10.70;;;5.03;;
70071;SDS011;57434;42.794;23.302;2023-04-25T05:28:00;8.77;;;4.50;;
70071;SDS011;57434;42.794;23.302;2023-04-25T05:29:01;8.43;;;4.60;;
70071;SDS011;57434;42.794;23.302;2023-04-25T05:30:03;7.40;;;3.70;;
70071;SDS011;57434;42.794;23.302;2023-04-25T05:31:06;6.33;;;3.07;;
70071;SDS011;57434;42.794;23.302;2023-04-25T05:32:08;8.48;;;3.13;;
70071;SDS011;57434;42.794;23.302;2023-04-25T05:33:10;7.18;;;2.97;;
70071;SDS011;57434;42.794;23.302;2023-04-25T05:34:11;8.00;;;3.10;;
70071;SDS011;57434;42.794;23.302;2023-04-25T05:35:13;7.97;;;3.60;;
70071;SDS011;57434;42.794;23.302;2023-04-25T05:36:15;8.68;;;3.30;;
70071;SDS011;57434;42.794;23.302;2023-04-25T05:37:17;8.15;;;3.40;;
70071;SDS011;57434;42.794;23.302;2023-04-25T05:38:19;12.88;;;5.13;;
70071;SDS011;57434;42.794;23.302;2023-04-25T05:39:20;9.05;;;4.28;;
70071;SDS011;57434;42.794;23.302;2023-04-25T05:40:22;8.13;;;3.97;;
70071;SDS011;57434;42.794;23.302;2023-04-25T05:41:24;8.60;;;4.00;;
70071;SDS011;57434;42.794;23.302;2023-04-25T05:42:26;10.57;;;4.80;;
70071;SDS011;57434;42.794;23.302;2023-04-25T05:43:27;8.82;;;3.97;;
70071;SDS011;57434;42.794;23.302;2023-04-25T05:44:29;9.30;;;3.03;;
70071;SDS011;57434;42.794;23.302;2023-04-25T05:45:31;6.97;;;2.78;;
70071;SDS011;57434;42.794;23.302;2023-04-25T05:46:33;5.95;;;2.47;;
70071;SDS011;57434;42.794;23.302;2023-04-25T05:47:35;8.45;;;2.92;;
70071;SDS011;57434;42.794;23.302;2023-04-25T05:48:37;10.98;;;3.50;;
70071;SDS011;57434;42.794;23.302;2023-04-25T05:49:39;6.13;;;2.85;;
70071;SDS011;57434;42.794;23.302;2023-04-25T05:50:41;5.43;;;2.50;;
70071;SDS011;57434;42.794;23.302;2023-04-25T05:51:43;7.83;;;2.70;;
70071;SDS011;57434;42.794;23.302;2023-04-25T05:52:44;7.70;;;3.30;;
70071;SDS011;57434;42.794;23.302;2023-04-25T05:53:46;8.35;;;3.70;;
70071;SDS011;57434;42.794;23.302;2023-04-25T05:54:48;6.63;;;3.25;;
70071;SDS011;57434;42.794;23.302;2023-04-25T05:55:50;7.15;;;3.50;;
70071;SDS011;57434;42.794;23.302;2023-04-25T05:56:52;8.07;;;3.55;;
70071;SDS011;57434;42.794;23.302;2023-04-25T05:57:54;7.38;;;3.22;;
70071;SDS011;57434;42.794;23.302;2023-04-25T05:58:55;6.22;;;3.05;;
70071;SDS011;57434;42.794;23.302;2023-04-25T05:59:57;7.70;;;3.40;;
70071;SDS011;57434;42.794;23.302;2023-04-25T06:00:59;8.65;;;2.80;;
70071;SDS011;57434;42.794;23.302;2023-04-25T06:02:01;6.33;;;2.97;;
70071;SDS011;57434;42.794;23.302;2023-04-25T06:03:03;6.93;;;2.85;;
70071;SDS011;57434;42.794;23.302;2023-04-25T06:04:05;5.72;;;2.67;;
70071;SDS011;57434;42.794;23.302;2023-04-25T06:05:07;6.22;;;2.75;;
70071;SDS011;57434;42.794;23.302;2023-04-25T06:06:11;7.25;;;3.10;;
70071;SDS011;57434;42.794;23.302;2023-04-25T06:07:13;8.00;;;3.25;;
70071;SDS011;57434;42.794;23.302;2023-04-25T06:08:14;6.47;;;3.47;;
70071;SDS011;57434;42.794;23.302;2023-04-25T06:09:16;7.43;;;3.38;;